sensor_id;sensor_type;location;lat;lon;timestamp;pressure;altitude;pressure_sealevel;temperature;humidity
49194;BME280;35029;50.804;12.866;2022-10-16T00:01:47;97460.59;;;14.34;100.00
49194;BME280;35029;50.804;12.866;2022-10-16T00:04:13;97464.31;;;14.33;100.00
49194;BME280;35029;50.804;12.866;2022-10-16T00:06:38;97457.13;;;14.33;100.00
49194;BME280;35029;50.804;12.866;2022-10-16T00:09:05;97466.19;;;14.44;100.00
49194;BME280;35029;50.804;12.866;2022-10-16T00:11:33;97466.06;;;14.39;100.00
49194;BME280;35029;50.804;12.866;2022-10-16T00:14:00;97474.06;;;14.39;100.00
49194;BME280;35029;50.804;12.866;2022-10-16T00:16:27;97465.69;;;14.35;100.00
49194;BME280;35029;50.804;12.866;2022-10-16T00:18:53;97475.78;;;14.33;100.00
49194;BME280;35029;50.804;12.866;2022-10-16T00:21:21;97460.56;;;14.22;100.00
49194;BME280;35029;50.804;12.866;2022-10-16T00:23:54;97487.63;;;14.37;100.00
49194;BME280;35029;50.804;12.866;2022-10-16T00:26:20;97481.16;;;14.45;100.00
49194;BME280;35029;50.804;12.866;2022-10-16T00:28:50;97486.28;;;14.47;100.00
49194;BME280;35029;50.804;12.866;2022-10-16T00:31:18;97480.84;;;14.53;100.00
49194;BME280;35029;50.804;12.866;2022-10-16T00:33:44;97482.53;;;14.48;100.00
49194;BME280;35029;50.804;12.866;2022-10-16T00:36:12;97495.69;;;14.61;100.00
49194;BME280;35029;50.804;12.866;2022-10-16T00:38:38;97487.50;;;14.63;100.00
49194;BME280;35029;50.804;12.866;2022-10-16T00:41:05;97501.47;;;14.77;100.00
49194;BME280;35029;50.804;12.866;2022-10-16T00:46:08;97508.91;;;14.86;100.00
49194;BME280;35029;50.804;12.866;2022-10-16T00:48:34;97509.94;;;14.85;100.00
49194;BME280;35029;50.804;12.866;2022-10-16T00:51:00;97494.50;;;14.76;100.00
49194;BME280;35029;50.804;12.866;2022-10-16T00:53:25;97494.03;;;14.79;100.00
49194;BME280;35029;50.804;12.866;2022-10-16T00:55:51;97515.19;;;14.92;100.00
49194;BME280;35029;50.804;12.866;2022-10-16T00:58:17;97510.88;;;14.91;100.00
49194;BME280;35029;50.804;12.866;2022-10-16T01:00:43;97515.66;;;14.89;100.00
49194;BME280;35029;50.804;12.866;2022-10-16T01:03:28;97515.66;;;14.89;100.00
49194;BME280;35029;50.804;12.866;2022-10-16T01:06:04;97514.50;;;14.85;100.00
49194;BME280;35029;50.804;12.866;2022-10-16T01:08:46;97513.66;;;14.84;100.00
49194;BME280;35029;50.804;12.866;2022-10-16T01:11:22;97512.06;;;14.83;100.00
49194;BME280;35029;50.804;12.866;2022-10-16T01:13:55;97503.78;;;14.73;100.00
49194;BME280;35029;50.804;12.866;2022-10-16T01:19:40;97511.44;;;14.81;100.00
49194;BME280;35029;50.804;12.866;2022-10-16T01:22:09;97489.84;;;14.71;100.00
49194;BME280;35029;50.804;12.866;2022-10-16T01:24:40;97512.84;;;14.84;100.00
49194;BME280;35029;50.804;12.866;2022-10-16T01:27:35;97511.00;;;14.84;100.00
49194;BME280;35029;50.804;12.866;2022-10-16T01:30:12;97504.03;;;14.83;100.00
49194;BME280;35029;50.804;12.866;2022-10-16T01:32:42;97498.81;;;14.77;100.00
49194;BME280;35029;50.804;12.866;2022-10-16T01:35:18;97507.88;;;14.87;100.00
49194;BME280;35029;50.804;12.866;2022-10-16T01:37:55;97511.59;;;14.86;100.00
49194;BME280;35029;50.804;12.866;2022-10-16T01:40:26;97494.19;;;14.84;100.00
49194;BME280;35029;50.804;12.866;2022-10-16T01:42:57;97514.59;;;14.90;100.00
49194;BME280;35029;50.804;12.866;2022-10-16T01:45:25;97513.41;;;14.86;100.00
49194;BME280;35029;50.804;12.866;2022-10-16T01:47:53;97506.81;;;14.77;100.00
49194;BME280;35029;50.804;12.866;2022-10-16T01:50:20;97505.97;;;14.64;100.00
49194;BME280;35029;50.804;12.866;2022-10-16T01:52:49;97501.44;;;14.65;100.00
49194;BME280;35029;50.804;12.866;2022-10-16T01:55:22;97499.81;;;14.64;100.00
49194;BME280;35029;50.804;12.866;2022-10-16T01:57:50;97500.47;;;14.59;100.00
49194;BME280;35029;50.804;12.866;2022-10-16T02:00:19;97494.41;;;14.52;100.00
49194;BME280;35029;50.804;12.866;2022-10-16T02:02:48;97501.34;;;14.53;100.00
49194;BME280;35029;50.804;12.866;2022-10-16T02:05:21;97503.06;;;14.47;100.00
49194;BME280;35029;50.804;12.866;2022-10-16T02:07:48;97511.06;;;14.47;100.00
49194;BME280;35029;50.804;12.866;2022-10-16T02:10:14;97495.84;;;14.36;100.00
49194;BME280;35029;50.804;12.866;2022-10-16T02:12:44;97508.50;;;14.41;100.00
49194;BME280;35029;50.804;12.866;2022-10-16T02:15:11;97516.50;;;14.41;100.00
49194;BME280;35029;50.804;12.866;2022-10-16T02:17:36;97513.81;;;14.41;100.00
49194;BME280;35029;50.804;12.866;2022-10-16T02:20:03;97500.81;;;14.32;100.00
49194;BME280;35029;50.804;12.866;2022-10-16T02:22:34;97505.13;;;14.33;100.00
49194;BME280;35029;50.804;12.866;2022-10-16T02:28:06;97528.41;;;14.38;100.00
49194;BME280;35029;50.804;12.866;2022-10-16T02:30:54;97527.63;;;14.37;100.00
49194;BME280;35029;50.804;12.866;2022-10-16T02:33:24;97504.16;;;14.28;100.00
49194;BME280;35029;50.804;12.866;2022-10-16T02:35:51;97509.41;;;14.34;100.00
49194;BME280;35029;50.804;12.866;2022-10-16T02:38:17;97507.69;;;14.40;100.00
49194;BME280;35029;50.804;12.866;2022-10-16T02:40:44;97497.34;;;14.32;100.00
49194;BME280;35029;50.804;12.866;2022-10-16T02:43:10;97516.72;;;14.39;100.00
49194;BME280;35029;50.804;12.866;2022-10-16T02:45:36;97510.59;;;14.39;100.00
49194;BME280;35029;50.804;12.866;2022-10-16T02:48:02;97508.34;;;14.35;100.00
49194;BME280;35029;50.804;12.866;2022-10-16T02:50:27;97502.75;;;14.25;100.00
49194;BME280;35029;50.804;12.866;2022-10-16T02:52:53;97508.97;;;14.19;100.00
49194;BME280;35029;50.804;12.866;2022-10-16T02:55:18;97518.38;;;14.22;100.00
49194;BME280;35029;50.804;12.866;2022-10-16T02:57:43;97523.56;;;14.16;100.00
49194;BME280;35029;50.804;12.866;2022-10-16T03:00:11;97527.72;;;14.12;100.00
49194;BME280;35029;50.804;12.866;2022-10-16T03:02:37;97529.34;;;14.13;100.00
49194;BME280;35029;50.804;12.866;2022-10-16T03:05:03;97486.59;;;13.90;100.00
49194;BME280;35029;50.804;12.866;2022-10-16T03:07:28;97530.97;;;14.14;100.00
49194;BME280;35029;50.804;12.866;2022-10-16T03:09:54;97528.31;;;14.14;100.00
49194;BME280;35029;50.804;12.866;2022-10-16T03:12:21;97524.63;;;14.15;100.00
49194;BME280;35029;50.804;12.866;2022-10-16T03:14:47;97519.13;;;14.10;100.00
49194;BME280;35029;50.804;12.866;2022-10-16T03:17:13;97523.94;;;14.20;100.00
49194;BME280;35029;50.804;12.866;2022-10-16T03:19:39;97530.22;;;14.26;100.00
49194;BME280;35029;50.804;12.866;2022-10-16T03:22:04;97501.66;;;14.14;100.00
49194;BME280;35029;50.804;12.866;2022-10-16T03:24:30;97509.56;;;14.21;100.00
49194;BME280;35029;50.804;12.866;2022-10-16T03:26:55;97522.28;;;14.37;100.00
49194;BME280;35029;50.804;12.866;2022-10-16T03:29:21;97520.88;;;14.35;100.00
49194;BME280;35029;50.804;12.866;2022-10-16T03:31:46;97525.19;;;14.36;100.00
49194;BME280;35029;50.804;12.866;2022-10-16T03:34:13;97513.41;;;14.25;100.00
49194;BME280;35029;50.804;12.866;2022-10-16T03:36:39;97528.88;;;14.35;100.00
49194;BME280;35029;50.804;12.866;2022-10-16T03:39:04;97533.25;;;14.29;100.00
49194;BME280;35029;50.804;12.866;2022-10-16T03:41:30;97540.22;;;14.30;100.00
49194;BME280;35029;50.804;12.866;2022-10-16T03:43:55;97536.47;;;14.19;100.00
49194;BME280;35029;50.804;12.866;2022-10-16T03:46:21;97549.72;;;14.26;100.00
49194;BME280;35029;50.804;12.866;2022-10-16T03:48:47;97537.94;;;14.15;100.00
49194;BME280;35029;50.804;12.866;2022-10-16T03:51:12;97542.03;;;14.18;100.00
49194;BME280;35029;50.804;12.866;2022-10-16T03:53:37;97555.94;;;14.20;100.00
49194;BME280;35029;50.804;12.866;2022-10-16T03:56:03;97549.78;;;14.19;100.00
49194;BME280;35029;50.804;12.866;2022-10-16T03:58:29;97540.16;;;14.18;100.00
49194;BME280;35029;50.804;12.866;2022-10-16T04:00:55;97536.69;;;14.18;100.00
49194;BME280;35029;50.804;12.866;2022-10-16T04:03:20;97542.28;;;14.28;100.00
49194;BME280;35029;50.804;12.866;2022-10-16T04:05:46;97541.34;;;14.23;100.00
49194;BME280;35029;50.804;12.866;2022-10-16T04:08:12;97537.88;;;14.22;100.00
49194;BME280;35029;50.804;12.866;2022-10-16T04:10:37;97558.91;;;14.30;100.00
49194;BME280;35029;50.804;12.866;2022-10-16T04:13:03;97557.03;;;14.31;100.00
49194;BME280;35029;50.804;12.866;2022-10-16T04:15:28;97559.47;;;14.32;100.00
49194;BME280;35029;50.804;12.866;2022-10-16T04:17:54;97538.44;;;14.24;100.00
49194;BME280;35029;50.804;12.866;2022-10-16T04:20:19;97556.81;;;14.32;100.00
49194;BME280;35029;50.804;12.866;2022-10-16T04:22:45;97563.91;;;14.39;100.00
49194;BME280;35029;50.804;12.866;2022-10-16T04:25:10;97561.91;;;14.34;100.00
49194;BME280;35029;50.804;12.866;2022-10-16T04:27:37;97551.47;;;14.32;100.00
49194;BME280;35029;50.804;12.866;2022-10-16T04:30:03;97556.00;;;14.32;100.00
49194;BME280;35029;50.804;12.866;2022-10-16T04:32:29;97538.28;;;14.19;100.00
49194;BME280;35029;50.804;12.866;2022-10-16T04:34:55;97549.91;;;14.25;100.00
49194;BME280;35029;50.804;12.866;2022-10-16T04:37:24;97554.22;;;14.26;100.00
49194;BME280;35029;50.804;12.866;2022-10-16T04:39:51;97571.41;;;14.30;100.00
49194;BME280;35029;50.804;12.866;2022-10-16T04:42:16;97550.81;;;14.18;100.00
49194;BME280;35029;50.804;12.866;2022-10-16T04:44:42;97568.38;;;14.26;100.00
49194;BME280;35029;50.804;12.866;2022-10-16T04:47:07;97567.78;;;14.24;100.00
49194;BME280;35029;50.804;12.866;2022-10-16T04:49:33;97567.78;;;14.24;100.00
49194;BME280;35029;50.804;12.866;2022-10-16T04:51:58;97575.78;;;14.24;100.00
49194;BME280;35029;50.804;12.866;2022-10-16T04:54:24;97553.19;;;14.08;100.00
49194;BME280;35029;50.804;12.866;2022-10-16T04:56:49;97585.84;;;14.22;100.00
49194;BME280;35029;50.804;12.866;2022-10-16T04:59:17;97575.19;;;14.22;100.00
49194;BME280;35029;50.804;12.866;2022-10-16T05:01:43;97581.34;;;14.23;100.00
49194;BME280;35029;50.804;12.866;2022-10-16T05:04:09;97584.00;;;14.23;100.00
49194;BME280;35029;50.804;12.866;2022-10-16T05:06:35;97579.13;;;14.19;100.00
49194;BME280;35029;50.804;12.866;2022-10-16T05:09:00;97577.25;;;14.20;100.00
49194;BME280;35029;50.804;12.866;2022-10-16T05:11:26;97586.06;;;14.20;100.00
49194;BME280;35029;50.804;12.866;2022-10-16T05:13:52;97579.41;;;14.11;100.00
49194;BME280;35029;50.804;12.866;2022-10-16T05:16:17;97589.00;;;14.12;100.00
49194;BME280;35029;50.804;12.866;2022-10-16T05:18:43;97597.63;;;14.14;100.00
49194;BME280;35029;50.804;12.866;2022-10-16T05:21:09;97576.28;;;13.96;100.00
49194;BME280;35029;50.804;12.866;2022-10-16T05:23:34;97596.66;;;14.09;100.00
49194;BME280;35029;50.804;12.866;2022-10-16T05:26:00;97589.75;;;14.01;100.00
49194;BME280;35029;50.804;12.866;2022-10-16T05:28:26;97609.31;;;14.13;100.00
49194;BME280;35029;50.804;12.866;2022-10-16T05:30:53;97605.63;;;14.14;100.00
49194;BME280;35029;50.804;12.866;2022-10-16T05:33:22;97628.34;;;14.17;100.00
49194;BME280;35029;50.804;12.866;2022-10-16T05:35:47;97625.16;;;14.27;100.00
49194;BME280;35029;50.804;12.866;2022-10-16T05:38:13;97613.09;;;14.24;100.00
49194;BME280;35029;50.804;12.866;2022-10-16T05:40:38;97622.13;;;14.23;100.00
49194;BME280;35029;50.804;12.866;2022-10-16T05:43:04;97591.75;;;14.06;100.00
49194;BME280;35029;50.804;12.866;2022-10-16T05:45:30;97620.06;;;14.25;100.00
49194;BME280;35029;50.804;12.866;2022-10-16T05:47:56;97620.16;;;14.37;100.00
49194;BME280;35029;50.804;12.866;2022-10-16T05:50:21;97628.50;;;14.41;100.00
49194;BME280;35029;50.804;12.866;2022-10-16T05:52:46;97631.09;;;14.47;100.00
49194;BME280;35029;50.804;12.866;2022-10-16T05:55:12;97601.31;;;14.32;100.00
49194;BME280;35029;50.804;12.866;2022-10-16T05:57:37;97622.06;;;14.48;100.00
49194;BME280;35029;50.804;12.866;2022-10-16T06:00:04;97643.31;;;14.55;100.00
49194;BME280;35029;50.804;12.866;2022-10-16T06:02:38;97631.00;;;14.54;100.00
49194;BME280;35029;50.804;12.866;2022-10-16T06:05:04;97634.63;;;14.60;100.00
49194;BME280;35029;50.804;12.866;2022-10-16T06:07:34;97637.06;;;14.61;100.00
49194;BME280;35029;50.804;12.866;2022-10-16T06:10:00;97630.72;;;14.62;100.00
49194;BME280;35029;50.804;12.866;2022-10-16T06:12:26;97638.88;;;14.67;100.00
49194;BME280;35029;50.804;12.866;2022-10-16T06:14:52;97647.47;;;14.69;100.00
49194;BME280;35029;50.804;12.866;2022-10-16T06:17:17;97627.66;;;14.59;100.00
49194;BME280;35029;50.804;12.866;2022-10-16T06:19:43;97656.66;;;14.74;100.00
49194;BME280;35029;50.804;12.866;2022-10-16T06:22:08;97667.78;;;14.70;100.00
49194;BME280;35029;50.804;12.866;2022-10-16T06:24:34;97665.34;;;14.69;100.00
49194;BME280;35029;50.804;12.866;2022-10-16T06:26:59;97664.75;;;14.67;100.00
49194;BME280;35029;50.804;12.866;2022-10-16T06:29:25;97656.81;;;14.60;100.00
49194;BME280;35029;50.804;12.866;2022-10-16T06:31:50;97668.88;;;14.63;100.00
49194;BME280;35029;50.804;12.866;2022-10-16T06:34:16;97662.72;;;14.62;100.00
49194;BME280;35029;50.804;12.866;2022-10-16T06:36:41;97675.69;;;14.59;100.00
49194;BME280;35029;50.804;12.866;2022-10-16T06:39:08;97690.06;;;14.58;100.00
49194;BME280;35029;50.804;12.866;2022-10-16T06:41:34;97689.69;;;14.54;100.00
49194;BME280;35029;50.804;12.866;2022-10-16T06:44:12;97685.38;;;14.53;100.00
49194;BME280;35029;50.804;12.866;2022-10-16T06:46:37;97698.16;;;14.51;100.00
49194;BME280;35029;50.804;12.866;2022-10-16T06:49:03;97677.47;;;14.46;100.00
49194;BME280;35029;50.804;12.866;2022-10-16T06:51:28;97679.31;;;14.46;100.00
49194;BME280;35029;50.804;12.866;2022-10-16T06:53:55;97689.63;;;14.61;100.00
49194;BME280;35029;50.804;12.866;2022-10-16T06:56:26;97684.75;;;14.58;100.00
49194;BME280;35029;50.804;12.866;2022-10-16T06:58:53;97710.00;;;14.74;100.00
49194;BME280;35029;50.804;12.866;2022-10-16T07:01:20;97711.19;;;14.78;100.00
49194;BME280;35029;50.804;12.866;2022-10-16T07:03:47;97709.72;;;14.82;100.00
49194;BME280;35029;50.804;12.866;2022-10-16T07:06:14;97704.19;;;14.83;100.00
49194;BME280;35029;50.804;12.866;2022-10-16T07:08:42;97704.53;;;14.87;100.00
49194;BME280;35029;50.804;12.866;2022-10-16T07:11:10;97718.59;;;14.94;100.00
49194;BME280;35029;50.804;12.866;2022-10-16T07:13:37;97715.13;;;14.94;100.00
49194;BME280;35029;50.804;12.866;2022-10-16T07:16:18;97726.97;;;14.98;100.00
49194;BME280;35029;50.804;12.866;2022-10-16T07:18:45;97714.91;;;14.95;100.00
49194;BME280;35029;50.804;12.866;2022-10-16T07:21:14;97727.50;;;15.07;100.00
49194;BME280;35029;50.804;12.866;2022-10-16T07:23:40;97729.41;;;15.18;100.00
49194;BME280;35029;50.804;12.866;2022-10-16T07:26:08;97737.56;;;15.23;100.00
49194;BME280;35029;50.804;12.866;2022-10-16T07:28:35;97738.53;;;15.29;100.00
49194;BME280;35029;50.804;12.866;2022-10-16T07:31:05;97738.44;;;15.35;100.00
49194;BME280;35029;50.804;12.866;2022-10-16T07:33:33;97732.63;;;15.38;100.00
49194;BME280;35029;50.804;12.866;2022-10-16T07:35:59;97717.88;;;15.36;100.00
49194;BME280;35029;50.804;12.866;2022-10-16T07:38:24;97719.75;;;15.35;100.00
49194;BME280;35029;50.804;12.866;2022-10-16T07:41:00;97745.66;;;15.47;100.00
49194;BME280;35029;50.804;12.866;2022-10-16T07:43:27;97734.28;;;15.51;100.00
49194;BME280;35029;50.804;12.866;2022-10-16T07:45:53;97726.19;;;15.58;100.00
49194;BME280;35029;50.804;12.866;2022-10-16T07:48:21;97744.44;;;15.61;100.00
49194;BME280;35029;50.804;12.866;2022-10-16T07:50:46;97747.22;;;15.66;100.00
49194;BME280;35029;50.804;12.866;2022-10-16T07:53:12;97743.06;;;15.70;100.00
49194;BME280;35029;50.804;12.866;2022-10-16T07:55:38;97734.72;;;15.79;100.00
49194;BME280;35029;50.804;12.866;2022-10-16T07:58:03;97715.66;;;15.75;100.00
49194;BME280;35029;50.804;12.866;2022-10-16T08:00:29;97726.84;;;15.84;100.00
49194;BME280;35029;50.804;12.866;2022-10-16T08:02:56;97738.38;;;15.96;100.00
49194;BME280;35029;50.804;12.866;2022-10-16T08:05:25;97749.56;;;16.05;100.00
49194;BME280;35029;50.804;12.866;2022-10-16T08:07:51;97750.41;;;16.17;100.00
49194;BME280;35029;50.804;12.866;2022-10-16T08:10:18;97758.88;;;16.26;100.00
49194;BME280;35029;50.804;12.866;2022-10-16T08:12:44;97763.56;;;16.31;100.00
49194;BME280;35029;50.804;12.866;2022-10-16T08:15:10;97743.66;;;16.27;100.00
49194;BME280;35029;50.804;12.866;2022-10-16T08:17:35;97747.28;;;16.32;100.00
49194;BME280;35029;50.804;12.866;2022-10-16T08:20:02;97758.19;;;16.43;100.00
49194;BME280;35029;50.804;12.866;2022-10-16T08:22:28;97759.09;;;16.48;100.00
49194;BME280;35029;50.804;12.866;2022-10-16T08:24:53;97759.59;;;16.57;100.00
49194;BME280;35029;50.804;12.866;2022-10-16T08:27:19;97753.28;;;16.63;100.00
49194;BME280;35029;50.804;12.866;2022-10-16T08:29:44;97757.34;;;16.78;100.00
49194;BME280;35029;50.804;12.866;2022-10-16T08:32:10;97754.78;;;16.83;100.00
49194;BME280;35029;50.804;12.866;2022-10-16T08:34:35;97745.38;;;16.80;100.00
49194;BME280;35029;50.804;12.866;2022-10-16T08:37:01;97732.34;;;16.72;100.00
49194;BME280;35029;50.804;12.866;2022-10-16T08:39:27;97748.16;;;16.85;100.00
49194;BME280;35029;50.804;12.866;2022-10-16T08:44:43;97762.84;;;16.95;100.00
49194;BME280;35029;50.804;12.866;2022-10-16T08:47:21;97759.34;;;16.94;100.00
49194;BME280;35029;50.804;12.866;2022-10-16T08:49:56;97747.09;;;16.98;100.00
49194;BME280;35029;50.804;12.866;2022-10-16T08:52:25;97761.28;;;17.11;100.00
49194;BME280;35029;50.804;12.866;2022-10-16T08:54:54;97764.88;;;17.16;99.15
49194;BME280;35029;50.804;12.866;2022-10-16T08:57:21;97773.72;;;17.17;98.08
49194;BME280;35029;50.804;12.866;2022-10-16T08:59:47;97768.69;;;17.20;98.39
49194;BME280;35029;50.804;12.866;2022-10-16T09:07:32;97772.38;;;17.31;96.66
49194;BME280;35029;50.804;12.866;2022-10-16T09:23:29;97804.91;;;17.64;93.75
49194;BME280;35029;50.804;12.866;2022-10-16T09:25:56;97789.41;;;17.66;94.16
49194;BME280;35029;50.804;12.866;2022-10-16T09:28:23;97798.34;;;17.71;93.82
49194;BME280;35029;50.804;12.866;2022-10-16T09:30:49;97792.31;;;17.64;93.69
49194;BME280;35029;50.804;12.866;2022-10-16T09:33:15;97812.31;;;17.73;94.92
49194;BME280;35029;50.804;12.866;2022-10-16T09:35:44;97813.72;;;17.76;94.43
49194;BME280;35029;50.804;12.866;2022-10-16T09:38:22;97814.28;;;17.78;92.72
49194;BME280;35029;50.804;12.866;2022-10-16T09:40:48;97815.69;;;17.81;91.75
49194;BME280;35029;50.804;12.866;2022-10-16T09:43:26;97824.88;;;17.85;91.51
49194;BME280;35029;50.804;12.866;2022-10-16T09:46:04;97826.56;;;17.91;91.70
49194;BME280;35029;50.804;12.866;2022-10-16T09:48:39;97819.56;;;17.90;90.27
49194;BME280;35029;50.804;12.866;2022-10-16T09:51:32;97822.38;;;17.95;90.40
49194;BME280;35029;50.804;12.866;2022-10-16T09:54:02;97825.56;;;17.92;90.48
49194;BME280;35029;50.804;12.866;2022-10-16T09:56:37;97832.81;;;17.92;91.44
49194;BME280;35029;50.804;12.866;2022-10-16T10:01:39;97859.72;;;17.85;91.36
49194;BME280;35029;50.804;12.866;2022-10-16T10:04:06;97853.06;;;17.87;90.34
49194;BME280;35029;50.804;12.866;2022-10-16T10:06:35;97853.41;;;17.91;90.67
49194;BME280;35029;50.804;12.866;2022-10-16T10:09:24;97856.31;;;18.18;88.86
49194;BME280;35029;50.804;12.866;2022-10-16T10:11:56;97860.25;;;18.28;88.75
49194;BME280;35029;50.804;12.866;2022-10-16T10:16:48;97860.50;;;18.60;88.72
49194;BME280;35029;50.804;12.866;2022-10-16T10:19:21;97856.25;;;18.81;89.12
49194;BME280;35029;50.804;12.866;2022-10-16T10:21:48;97865.44;;;18.85;88.06
49194;BME280;35029;50.804;12.866;2022-10-16T10:24:15;97864.06;;;18.83;86.93
49194;BME280;35029;50.804;12.866;2022-10-16T10:29:14;97856.81;;;18.66;87.09
49194;BME280;35029;50.804;12.866;2022-10-16T10:31:56;97858.03;;;18.75;87.47
49194;BME280;35029;50.804;12.866;2022-10-16T10:40:51;97870.75;;;18.80;87.37
49194;BME280;35029;50.804;12.866;2022-10-16T10:46:02;97861.56;;;18.76;86.55
49194;BME280;35029;50.804;12.866;2022-10-16T10:53:55;97858.13;;;18.64;86.45
49194;BME280;35029;50.804;12.866;2022-10-16T11:01:39;97858.72;;;18.66;86.11
49194;BME280;35029;50.804;12.866;2022-10-16T11:04:18;97843.56;;;18.59;86.21
49194;BME280;35029;50.804;12.866;2022-10-16T11:06:51;97857.31;;;18.80;86.57
49194;BME280;35029;50.804;12.866;2022-10-16T11:09:24;97864.75;;;18.90;86.87
49194;BME280;35029;50.804;12.866;2022-10-16T11:14:50;97872.69;;;19.41;83.54
49194;BME280;35029;50.804;12.866;2022-10-16T11:17:42;97861.47;;;19.71;82.13
49194;BME280;35029;50.804;12.866;2022-10-16T11:20:25;97845.03;;;19.68;82.12
49194;BME280;35029;50.804;12.866;2022-10-16T11:23:00;97865.19;;;19.65;81.96
49194;BME280;35029;50.804;12.866;2022-10-16T11:25:32;97865.38;;;19.58;82.47
49194;BME280;35029;50.804;12.866;2022-10-16T11:28:13;97868.63;;;19.61;82.02
49194;BME280;35029;50.804;12.866;2022-10-16T11:30:50;97847.44;;;19.42;80.66
49194;BME280;35029;50.804;12.866;2022-10-16T11:38:34;97854.47;;;19.92;78.72
49194;BME280;35029;50.804;12.866;2022-10-16T11:41:18;97875.28;;;20.02;79.99
49194;BME280;35029;50.804;12.866;2022-10-16T11:44:00;97868.63;;;19.83;79.30
49194;BME280;35029;50.804;12.866;2022-10-16T11:46:32;97869.75;;;19.87;81.02
49194;BME280;35029;50.804;12.866;2022-10-16T11:49:09;97893.56;;;19.78;78.67
49194;BME280;35029;50.804;12.866;2022-10-16T11:51:40;97889.81;;;19.79;79.37
49194;BME280;35029;50.804;12.866;2022-10-16T11:54:18;97887.94;;;20.02;77.40
49194;BME280;35029;50.804;12.866;2022-10-16T11:56:49;97878.63;;;19.87;76.45
49194;BME280;35029;50.804;12.866;2022-10-16T12:00:05;97891.22;;;19.82;76.59
49194;BME280;35029;50.804;12.866;2022-10-16T12:02:25;97886.50;;;19.94;77.46
49194;BME280;35029;50.804;12.866;2022-10-16T12:07:39;97883.75;;;20.11;75.63
49194;BME280;35029;50.804;12.866;2022-10-16T12:10:27;97872.31;;;20.26;74.56
49194;BME280;35029;50.804;12.866;2022-10-16T12:12:54;97892.09;;;20.42;73.68
49194;BME280;35029;50.804;12.866;2022-10-16T12:17:45;97888.72;;;20.57;72.83
49194;BME280;35029;50.804;12.866;2022-10-16T12:22:37;97883.00;;;20.48;72.33
49194;BME280;35029;50.804;12.866;2022-10-16T12:25:20;97877.34;;;20.50;73.62
49194;BME280;35029;50.804;12.866;2022-10-16T12:27:56;97889.19;;;20.49;73.50
49194;BME280;35029;50.804;12.866;2022-10-16T12:30:25;97905.53;;;20.42;71.97
49194;BME280;35029;50.804;12.866;2022-10-16T12:32:56;97897.84;;;20.56;72.50
49194;BME280;35029;50.804;12.866;2022-10-16T12:35:29;97904.13;;;20.62;71.14
49194;BME280;35029;50.804;12.866;2022-10-16T12:38:07;97905.84;;;20.46;71.31
49194;BME280;35029;50.804;12.866;2022-10-16T12:40:37;97895.84;;;20.41;72.77
49194;BME280;35029;50.804;12.866;2022-10-16T12:43:25;97897.34;;;20.26;72.80
49194;BME280;35029;50.804;12.866;2022-10-16T12:46:00;97914.94;;;20.39;72.80
49194;BME280;35029;50.804;12.866;2022-10-16T12:48:25;97904.75;;;20.41;72.33
49194;BME280;35029;50.804;12.866;2022-10-16T12:50:51;97908.16;;;20.64;72.95
49194;BME280;35029;50.804;12.866;2022-10-16T12:53:26;97912.59;;;20.75;72.62
49194;BME280;35029;50.804;12.866;2022-10-16T12:58:39;97915.94;;;20.60;71.88
49194;BME280;35029;50.804;12.866;2022-10-16T13:06:30;97915.66;;;20.30;70.79
49194;BME280;35029;50.804;12.866;2022-10-16T13:14:50;97919.16;;;20.03;74.95
49194;BME280;35029;50.804;12.866;2022-10-16T13:17:45;97918.09;;;20.04;75.26
49194;BME280;35029;50.804;12.866;2022-10-16T13:20:31;97913.31;;;19.84;74.47
49194;BME280;35029;50.804;12.866;2022-10-16T13:23:27;97888.25;;;19.61;75.68
49194;BME280;35029;50.804;12.866;2022-10-16T13:28:38;97934.50;;;19.63;76.17
49194;BME280;35029;50.804;12.866;2022-10-16T13:31:05;97925.31;;;19.59;77.74
49194;BME280;35029;50.804;12.866;2022-10-16T13:33:38;97934.47;;;19.58;78.94
49194;BME280;35029;50.804;12.866;2022-10-16T13:36:05;97930.88;;;19.52;77.98
49194;BME280;35029;50.804;12.866;2022-10-16T13:38:35;97933.56;;;19.52;79.04
49194;BME280;35029;50.804;12.866;2022-10-16T13:41:11;97928.88;;;19.42;78.89
49194;BME280;35029;50.804;12.866;2022-10-16T13:43:52;97925.56;;;19.35;79.41
49194;BME280;35029;50.804;12.866;2022-10-16T13:46:25;97935.38;;;19.47;79.48
49194;BME280;35029;50.804;12.866;2022-10-16T13:49:03;97937.78;;;19.43;79.41
49194;BME280;35029;50.804;12.866;2022-10-16T13:51:29;97933.63;;;19.35;79.56
49194;BME280;35029;50.804;12.866;2022-10-16T13:53:56;97932.66;;;19.24;80.09
49194;BME280;35029;50.804;12.866;2022-10-16T13:56:25;97939.81;;;19.36;80.48
49194;BME280;35029;50.804;12.866;2022-10-16T13:59:20;97946.25;;;19.35;80.01
49194;BME280;35029;50.804;12.866;2022-10-16T14:01:47;97921.13;;;19.24;79.34
49194;BME280;35029;50.804;12.866;2022-10-16T14:04:13;97938.41;;;19.33;79.72
49194;BME280;35029;50.804;12.866;2022-10-16T14:06:41;97938.81;;;19.42;80.34
49194;BME280;35029;50.804;12.866;2022-10-16T14:09:20;97940.34;;;19.55;80.66
49194;BME280;35029;50.804;12.866;2022-10-16T14:11:53;97935.09;;;19.65;79.73
49194;BME280;35029;50.804;12.866;2022-10-16T14:14:20;97961.75;;;19.89;76.86
49194;BME280;35029;50.804;12.866;2022-10-16T14:16:46;97936.22;;;20.14;75.91
49194;BME280;35029;50.804;12.866;2022-10-16T14:19:27;97943.81;;;19.95;75.34
49194;BME280;35029;50.804;12.866;2022-10-16T14:21:54;97947.59;;;19.76;75.72
49194;BME280;35029;50.804;12.866;2022-10-16T14:26:56;97961.50;;;19.90;74.99